Wetterdaten: Woche 20.06.22 - 26.06.22 (KW25)
Datum Zeit Temp. 2m rel. Feuchte Luftdruck Regen Wind Richtung Sonne ET UV-Index Solar Taupunkt Ben
20.06.2022 00:00 15,5 C 82 % 1012,2 hPa 0,0 mm 0,1 km/h (0 Bft) N 0,00 h 0,0 mm 0,0 UV-I 0 W/m 12,3 C 2,6 km/h (1 Bft)
20.06.2022 01:00 14,9 C 82 % 1012,4 hPa 0,0 mm 0,2 km/h (0 Bft) N 0,00 h 0,0 mm 0,0 UV-I 0 W/m 11,8 C 3,1 km/h (1 Bft)
20.06.2022 02:00 14,9 C 81 % 1012,3 hPa 0,0 mm 0,1 km/h (0 Bft) N 0,00 h 0,0 mm 0,0 UV-I 0 W/m 11,7 C 1,8 km/h (1 Bft)
20.06.2022 03:00 14,5 C 85 % 1014,3 hPa 6,3 mm 1,2 km/h (1 Bft) O 0,00 h 0,0 mm 0,0 UV-I 0 W/m 12,0 C 5,4 km/h (1 Bft)
20.06.2022 04:00 13,4 C 89 % 1010,5 hPa 0,8 mm 0,0 km/h (0 Bft) N 0,00 h 0,0 mm 0,0 UV-I 0 W/m 11,6 C 1,3 km/h (1 Bft)
20.06.2022 05:00 13,1 C 90 % 1011,1 hPa 0,3 mm 0,1 km/h (0 Bft) N 0,00 h 0,0 mm 0,0 UV-I 2 W/m 11,5 C 1,1 km/h (1 Bft)
20.06.2022 06:00 12,9 C 90 % 1013,5 hPa 0,3 mm 0,1 km/h (0 Bft) N 0,00 h 0,0 mm 0,0 UV-I 8 W/m 11,3 C 2,4 km/h (1 Bft)
20.06.2022 07:00 12,8 C 90 % 1013,0 hPa 0,0 mm 0,0 km/h (0 Bft) N 0,00 h 0,0 mm 0,0 UV-I 19 W/m 11,2 C 0,0 km/h (0 Bft)
20.06.2022 08:00 12,6 C 90 % 1013,5 hPa 0,0 mm 0,0 km/h (0 Bft) N 0,00 h 0,0 mm 0,0 UV-I 33 W/m 11,0 C 0,3 km/h (0 Bft)
20.06.2022 09:00 12,9 C 88 % 1014,3 hPa 0,0 mm 0,0 km/h (0 Bft) N 0,00 h 0,0 mm 0,0 UV-I 67 W/m 10,9 C 0,0 km/h (0 Bft)
20.06.2022 10:00 13,5 C 84 % 1015,2 hPa 0,3 mm 0,0 km/h (0 Bft) N 0,08 h 0,0 mm 0,2 UV-I 267 W/m 10,8 C 0,0 km/h (0 Bft)
20.06.2022 11:00 14,9 C 81 % 1015,6 hPa 0,0 mm 0,6 km/h (0 Bft) O 0,50 h 0,1 mm 0,5 UV-I 469 W/m 11,6 C 4,1 km/h (1 Bft)
20.06.2022 12:00 16,0 C 76 % 1016,0 hPa 0,0 mm 1,0 km/h (0 Bft) O 0,08 h 0,2 mm 0,6 UV-I 350 W/m 11,7 C 4,8 km/h (1 Bft)
20.06.2022 13:00 17,6 C 63 % 1016,2 hPa 0,0 mm 0,3 km/h (0 Bft) O 0,83 h 0,2 mm 1,8 UV-I 848 W/m 10,4 C 3,7 km/h (1 Bft)
20.06.2022 14:00 19,4 C 54 % 1015,8 hPa 0,0 mm 0,9 km/h (0 Bft) NW 1,00 h 0,4 mm 1,4 UV-I 915 W/m 9,8 C 7,2 km/h (2 Bft)
20.06.2022 15:00 20,5 C 51 % 1015,7 hPa 0,0 mm 1,6 km/h (1 Bft) NW 1,00 h 0,5 mm 0,8 UV-I 831 W/m 9,9 C 10,7 km/h (2 Bft)
20.06.2022 16:00 20,8 C 47 % 1015,7 hPa 0,0 mm 0,1 km/h (0 Bft) N 1,00 h 0,5 mm 0,2 UV-I 826 W/m 9,2 C 3,0 km/h (1 Bft)
20.06.2022 17:00 20,9 C 45 % 1015,7 hPa 0,0 mm 0,1 km/h (0 Bft) N 1,00 h 0,4 mm 0,0 UV-I 763 W/m 8,6 C 3,3 km/h (1 Bft)
20.06.2022 18:00 20,8 C 46 % 1015,6 hPa 0,0 mm 0,0 km/h (0 Bft) N 1,00 h 0,4 mm 0,0 UV-I 583 W/m 8,6 C 1,3 km/h (1 Bft)
20.06.2022 19:00 20,3 C 46 % 1015,6 hPa 0,0 mm 0,0 km/h (0 Bft) N 1,00 h 0,3 mm 0,0 UV-I 366 W/m 8,2 C 0,4 km/h (0 Bft)
20.06.2022 20:00 19,1 C 51 % 1015,9 hPa 0,0 mm 0,0 km/h (0 Bft) N 0,00 h 0,2 mm 0,0 UV-I 49 W/m 8,7 C 0,4 km/h (0 Bft)
20.06.2022 21:00 17,5 C 58 % 1016,1 hPa 0,0 mm 0,0 km/h (0 Bft) N 0,08 h 0,0 mm 0,0 UV-I 15 W/m 9,1 C 0,0 km/h (0 Bft)
20.06.2022 22:00 16,1 C 64 % 1016,5 hPa 0,0 mm 0,0 km/h (0 Bft) N 0,00 h 0,0 mm 0,0 UV-I 0 W/m 9,3 C 0,0 km/h (0 Bft)
20.06.2022 23:00 14,7 C 70 % 1016,6 hPa 0,0 mm 0,0 km/h (0 Bft) N 0,00 h 0,0 mm 0,0 UV-I 0 W/m 9,3 C 0,0 km/h (0 Bft)
21.06.2022 00:00 13,6 C 74 % 1016,7 hPa 0,0 mm 0,0 km/h (0 Bft) N 0,00 h 0,0 mm 0,0 UV-I 0 W/m 9,1 C 0,4 km/h (0 Bft)
21.06.2022 01:00 12,9 C 77 % 1016,6 hPa 0,0 mm 0,0 km/h (0 Bft) N 0,00 h 0,0 mm 0,0 UV-I 0 W/m 8,9 C 0,0 km/h (0 Bft)
21.06.2022 02:00 11,8 C 81 % 1016,5 hPa 0,0 mm 0,0 km/h (0 Bft) N 0,00 h 0,0 mm 0,0 UV-I 0 W/m 8,6 C 0,0 km/h (0 Bft)
21.06.2022 03:00 11,2 C 82 % 1016,3 hPa 0,0 mm 0,0 km/h (0 Bft) N 0,00 h 0,0 mm 0,0 UV-I 0 W/m 8,2 C 0,0 km/h (0 Bft)
21.06.2022 04:00 10,5 C 84 % 1016,0 hPa 0,0 mm 0,0 km/h (0 Bft) N 0,00 h 0,0 mm 0,0 UV-I 0 W/m 7,9 C 0,7 km/h (0 Bft)
21.06.2022 05:00 9,9 C 85 % 1015,7 hPa 0,0 mm 0,0 km/h (0 Bft) N 0,00 h 0,0 mm 0,0 UV-I 9 W/m 7,5 C 0,0 km/h (0 Bft)
21.06.2022 06:00 10,0 C 87 % 1016,0 hPa 0,0 mm 0,0 km/h (0 Bft) N 0,00 h 0,0 mm 0,0 UV-I 26 W/m 7,9 C 0,0 km/h (0 Bft)
21.06.2022 07:00 11,9 C 84 % 1015,7 hPa 0,0 mm 0,0 km/h (0 Bft) N 0,00 h 0,0 mm 0,1 UV-I 51 W/m 9,4 C 0,0 km/h (0 Bft)
21.06.2022 08:00 14,2 C 76 % 1015,9 hPa 0,0 mm 0,2 km/h (0 Bft) N 0,00 h 0,0 mm 0,1 UV-I 98 W/m 10,0 C 2,8 km/h (1 Bft)
21.06.2022 09:00 16,2 C 67 % 1015,8 hPa 0,0 mm 0,0 km/h (0 Bft) N 0,17 h 0,1 mm 0,0 UV-I 281 W/m 10,1 C 1,6 km/h (1 Bft)
21.06.2022 10:00 17,9 C 59 % 1015,4 hPa 0,0 mm 0,0 km/h (0 Bft) N 1,00 h 0,1 mm 0,0 UV-I 654 W/m 9,6 C 1,8 km/h (1 Bft)
21.06.2022 11:00 19,3 C 52 % 1014,5 hPa 0,0 mm 0,0 km/h (0 Bft) N 1,00 h 0,3 mm 0,0 UV-I 789 W/m 9,1 C 2,3 km/h (1 Bft)
21.06.2022 12:00 20,0 C 50 % 1014,3 hPa 0,0 mm 0,0 km/h (0 Bft) N 0,75 h 0,4 mm 0,0 UV-I 520 W/m 9,3 C 2,4 km/h (1 Bft)
21.06.2022 13:00 20,8 C 49 % 1014,1 hPa 0,0 mm 0,0 km/h (0 Bft) N 0,75 h 0,2 mm 0,9 UV-I 724 W/m 9,6 C 2,8 km/h (1 Bft)
21.06.2022 14:00 22,1 C 45 % 1013,6 hPa 0,0 mm 0,0 km/h (0 Bft) N 1,00 h 0,4 mm 0,9 UV-I 695 W/m 9,7 C 1,7 km/h (1 Bft)
21.06.2022 15:00 22,0 C 45 % 1013,2 hPa 0,0 mm 0,0 km/h (0 Bft) N 0,58 h 0,4 mm 0,3 UV-I 585 W/m 9,6 C 0,7 km/h (0 Bft)
21.06.2022 16:00 22,5 C 44 % 1012,7 hPa 0,0 mm 0,0 km/h (0 Bft) N 0,75 h 0,3 mm 0,0 UV-I 491 W/m 9,6 C 0,9 km/h (0 Bft)
21.06.2022 17:00 22,8 C 39 % 1012,1 hPa 0,0 mm 0,0 km/h (0 Bft) N 0,33 h 0,3 mm 0,0 UV-I 323 W/m 8,2 C 0,9 km/h (0 Bft)
21.06.2022 18:00 22,2 C 47 % 1011,9 hPa 0,0 mm 0,0 km/h (0 Bft) N 0,00 h 0,2 mm 0,0 UV-I 184 W/m 10,2 C 0,7 km/h (0 Bft)
21.06.2022 19:00 21,4 C 52 % 1011,9 hPa 0,0 mm 0,0 km/h (0 Bft) N 0,00 h 0,1 mm 0,0 UV-I 81 W/m 11,1 C 0,0 km/h (0 Bft)
21.06.2022 20:00 20,8 C 56 % 1011,9 hPa 0,0 mm 0,0 km/h (0 Bft) N 0,00 h 0,1 mm 0,0 UV-I 37 W/m 11,6 C 0,0 km/h (0 Bft)
21.06.2022 21:00 19,9 C 58 % 1011,9 hPa 0,0 mm 0,0 km/h (0 Bft) N 0,00 h 0,0 mm 0,0 UV-I 7 W/m 11,2 C 0,0 km/h (0 Bft)
21.06.2022 22:00 19,0 C 63 % 1012,2 hPa 0,0 mm 0,0 km/h (0 Bft) N 0,00 h 0,0 mm 0,0 UV-I 0 W/m 11,7 C 0,0 km/h (0 Bft)
21.06.2022 23:00 17,3 C 68 % 1012,4 hPa 0,0 mm 0,0 km/h (0 Bft) N 0,00 h 0,0 mm 0,0 UV-I 0 W/m 11,4 C 0,0 km/h (0 Bft)
22.06.2022 00:00 15,6 C 73 % 1012,5 hPa 0,0 mm 0,1 km/h (0 Bft) N 0,00 h 0,0 mm 0,0 UV-I 0 W/m 10,8 C 1,5 km/h (1 Bft)
22.06.2022 01:00 14,7 C 74 % 1012,7 hPa 0,0 mm 0,0 km/h (0 Bft) N 0,00 h 0,0 mm 0,0 UV-I 0 W/m 10,1 C 0,9 km/h (0 Bft)
22.06.2022 02:00 13,6 C 78 % 1012,4 hPa 0,0 mm 0,0 km/h (0 Bft) N 0,00 h 0,0 mm 0,0 UV-I 0 W/m 9,8 C 0,4 km/h (0 Bft)
22.06.2022 03:00 12,8 C 80 % 1012,1 hPa 0,0 mm 0,0 km/h (0 Bft) N 0,00 h 0,0 mm 0,0 UV-I 0 W/m 9,4 C 0,4 km/h (0 Bft)
22.06.2022 04:00 12,2 C 81 % 1012,0 hPa 0,0 mm 0,0 km/h (0 Bft) N 0,00 h 0,0 mm 0,0 UV-I 0 W/m 9,1 C 0,0 km/h (0 Bft)
22.06.2022 05:00 11,7 C 83 % 1011,7 hPa 0,0 mm 0,2 km/h (0 Bft) N 0,08 h 0,0 mm 0,0 UV-I 14 W/m 8,9 C 1,7 km/h (1 Bft)
22.06.2022 06:00 12,1 C 84 % 1011,9 hPa 0,0 mm 0,0 km/h (0 Bft) N 0,00 h 0,0 mm 0,0 UV-I 64 W/m 9,4 C 0,9 km/h (0 Bft)
22.06.2022 07:00 13,3 C 83 % 1012,1 hPa 0,0 mm 0,0 km/h (0 Bft) N 1,00 h 0,0 mm 0,0 UV-I 190 W/m 10,5 C 0,6 km/h (0 Bft)
22.06.2022 08:00 15,2 C 79 % 1012,2 hPa 0,0 mm 0,0 km/h (0 Bft) N 1,00 h 0,0 mm 0,0 UV-I 349 W/m 11,6 C 0,0 km/h (0 Bft)
22.06.2022 09:00 17,3 C 71 % 1012,2 hPa 0,0 mm 0,2 km/h (0 Bft) O 1,00 h 0,1 mm 0,0 UV-I 554 W/m 12,1 C 2,4 km/h (1 Bft)
22.06.2022 10:00 19,6 C 64 % 1012,1 hPa 0,0 mm 0,2 km/h (0 Bft) N 1,00 h 0,1 mm 0,0 UV-I 818 W/m 12,5 C 1,8 km/h (1 Bft)
22.06.2022 11:00 21,8 C 54 % 1011,9 hPa 0,0 mm 0,1 km/h (0 Bft) N 1,00 h 0,4 mm 1,5 UV-I 1011 W/m 12,1 C 2,0 km/h (1 Bft)
22.06.2022 12:00 24,1 C 45 % 1011,6 hPa 0,0 mm 0,4 km/h (0 Bft) S 1,00 h 0,5 mm 1,8 UV-I 1105 W/m 11,4 C 4,4 km/h (1 Bft)
22.06.2022 13:00 26,0 C 39 % 1011,5 hPa 0,0 mm 0,4 km/h (0 Bft) N 1,00 h 0,6 mm 0,9 UV-I 1144 W/m 11,0 C 3,7 km/h (1 Bft)
22.06.2022 14:00 27,3 C 37 % 1011,2 hPa 0,0 mm 0,5 km/h (0 Bft) N 1,00 h 0,6 mm 1,0 UV-I 1126 W/m 11,2 C 3,5 km/h (1 Bft)
22.06.2022 15:00 27,3 C 37 % 1010,6 hPa 0,0 mm 0,2 km/h (0 Bft) N 1,00 h 0,6 mm 0,8 UV-I 1037 W/m 11,3 C 2,8 km/h (1 Bft)
22.06.2022 16:00 28,1 C 35 % 1010,1 hPa 0,0 mm 0,3 km/h (0 Bft) N 1,00 h 0,5 mm 0,4 UV-I 923 W/m 11,2 C 4,1 km/h (1 Bft)
22.06.2022 17:00 28,0 C 35 % 1009,8 hPa 0,0 mm 0,1 km/h (0 Bft) N 0,67 h 0,5 mm 0,0 UV-I 541 W/m 10,9 C 2,8 km/h (1 Bft)
22.06.2022 18:00 27,4 C 36 % 1009,6 hPa 0,0 mm 0,0 km/h (0 Bft) N 1,00 h 0,3 mm 0,0 UV-I 384 W/m 10,8 C 0,6 km/h (0 Bft)
22.06.2022 19:00 27,4 C 35 % 1009,5 hPa 0,0 mm 0,0 km/h (0 Bft) N 1,00 h 0,2 mm 0,0 UV-I 331 W/m 10,7 C 1,5 km/h (1 Bft)
22.06.2022 20:00 26,8 C 37 % 1009,8 hPa 0,0 mm 0,1 km/h (0 Bft) N 0,08 h 0,2 mm 0,0 UV-I 50 W/m 10,7 C 1,3 km/h (1 Bft)
22.06.2022 21:00 25,3 C 42 % 1009,9 hPa 0,0 mm 0,0 km/h (0 Bft) N 0,08 h 0,1 mm 0,0 UV-I 14 W/m 11,3 C 0,2 km/h (0 Bft)
22.06.2022 22:00 23,0 C 49 % 1010,6 hPa 0,0 mm 0,0 km/h (0 Bft) N 0,00 h 0,0 mm 0,0 UV-I 0 W/m 11,6 C 0,0 km/h (0 Bft)
22.06.2022 23:00 20,3 C 58 % 1011,1 hPa 0,0 mm 0,0 km/h (0 Bft) N 0,00 h 0,0 mm 0,0 UV-I 0 W/m 11,8 C 0,0 km/h (0 Bft)
23.06.2022 00:00 18,7 C 63 % 1011,4 hPa 0,0 mm 0,0 km/h (0 Bft) N 0,00 h 0,0 mm 0,0 UV-I 0 W/m 11,6 C 0,0 km/h (0 Bft)
23.06.2022 01:00 17,9 C 66 % 1011,2 hPa 0,0 mm 0,0 km/h (0 Bft) N 0,00 h 0,0 mm 0,0 UV-I 0 W/m 11,5 C 0,0 km/h (0 Bft)
23.06.2022 02:00 16,7 C 70 % 1011,2 hPa 0,0 mm 0,0 km/h (0 Bft) N 0,00 h 0,0 mm 0,0 UV-I 0 W/m 11,3 C 0,0 km/h (0 Bft)
23.06.2022 03:00 16,3 C 74 % 1011,0 hPa 0,0 mm 0,0 km/h (0 Bft) N 0,00 h 0,0 mm 0,0 UV-I 0 W/m 11,6 C 0,2 km/h (0 Bft)
23.06.2022 04:00 16,8 C 73 % 1011,2 hPa 0,0 mm 0,0 km/h (0 Bft) N 0,00 h 0,0 mm 0,0 UV-I 0 W/m 11,9 C 1,8 km/h (1 Bft)
23.06.2022 05:00 17,2 C 72 % 1011,4 hPa 0,0 mm 0,0 km/h (0 Bft) N 0,00 h 0,0 mm 0,0 UV-I 11 W/m 12,1 C 1,6 km/h (1 Bft)
23.06.2022 06:00 17,7 C 69 % 1011,4 hPa 0,0 mm 0,0 km/h (0 Bft) N 0,00 h 0,0 mm 0,0 UV-I 28 W/m 12,1 C 1,9 km/h (1 Bft)
23.06.2022 07:00 19,1 C 66 % 1011,6 hPa 0,0 mm 0,6 km/h (0 Bft) O 0,00 h 0,0 mm 0,0 UV-I 51 W/m 12,7 C 3,6 km/h (1 Bft)
23.06.2022 08:00 21,1 C 66 % 1011,5 hPa 0,0 mm 0,6 km/h (0 Bft) O 0,00 h 0,0 mm 0,0 UV-I 74 W/m 14,5 C 5,0 km/h (1 Bft)
23.06.2022 09:00 23,2 C 64 % 1011,6 hPa 0,0 mm 1,2 km/h (1 Bft) O 0,17 h 0,1 mm 0,0 UV-I 255 W/m 15,9 C 6,6 km/h (2 Bft)
23.06.2022 10:00 25,3 C 59 % 1011,3 hPa 0,0 mm 1,7 km/h (1 Bft) S-SO 1,00 h 0,2 mm 0,0 UV-I 815 W/m 16,7 C 10,4 km/h (2 Bft)
23.06.2022 11:00 27,4 C 47 % 1011,1 hPa 0,0 mm 4,1 km/h (1 Bft) S 1,00 h 0,4 mm 0,0 UV-I 974 W/m 15,2 C 17,9 km/h (3 Bft)
23.06.2022 12:00 29,5 C 42 % 1010,7 hPa 0,0 mm 2,7 km/h (1 Bft) SW 1,00 h 0,5 mm 0,7 UV-I 1070 W/m 15,3 C 14,8 km/h (3 Bft)
23.06.2022 13:00 30,9 C 40 % 1010,3 hPa 0,0 mm 1,7 km/h (1 Bft) SW 1,00 h 0,6 mm 0,6 UV-I 1116 W/m 15,8 C 11,7 km/h (2 Bft)
23.06.2022 14:00 31,1 C 41 % 1009,6 hPa 0,0 mm 2,7 km/h (1 Bft) SW 1,00 h 0,6 mm 0,7 UV-I 1100 W/m 16,2 C 13,1 km/h (3 Bft)
23.06.2022 15:00 32,0 C 39 % 1009,1 hPa 0,0 mm 1,4 km/h (1 Bft) SW 1,00 h 0,6 mm 0,4 UV-I 998 W/m 16,2 C 8,9 km/h (2 Bft)
23.06.2022 16:00 31,7 C 39 % 1008,6 hPa 0,0 mm 2,0 km/h (1 Bft) SW 0,67 h 0,6 mm 0,2 UV-I 510 W/m 16,0 C 11,5 km/h (2 Bft)
23.06.2022 17:00 31,8 C 39 % 1007,9 hPa 0,0 mm 1,3 km/h (1 Bft) S-SW 1,00 h 0,4 mm 0,0 UV-I 704 W/m 15,9 C 9,3 km/h (2 Bft)
23.06.2022 18:00 31,5 C 40 % 1007,5 hPa 0,0 mm 1,1 km/h (0 Bft) W-SW 0,42 h 0,4 mm 0,0 UV-I 270 W/m 16,0 C 8,7 km/h (2 Bft)
23.06.2022 19:00 30,2 C 44 % 1007,3 hPa 0,0 mm 0,3 km/h (0 Bft) SW 0,33 h 0,2 mm 0,0 UV-I 156 W/m 16,5 C 4,2 km/h (1 Bft)
23.06.2022 20:00 28,4 C 51 % 1007,3 hPa 0,0 mm 0,2 km/h (0 Bft) N 0,00 h 0,1 mm 0,0 UV-I 33 W/m 17,1 C 1,8 km/h (1 Bft)
23.06.2022 21:00 25,2 C 63 % 1007,3 hPa 0,0 mm 0,0 km/h (0 Bft) N 0,00 h 0,0 mm 0,0 UV-I 16 W/m 17,7 C 0,0 km/h (0 Bft)
23.06.2022 22:00 23,6 C 68 % 1007,2 hPa 0,0 mm 0,1 km/h (0 Bft) N 0,00 h 0,0 mm 0,0 UV-I 0 W/m 17,4 C 1,3 km/h (1 Bft)
23.06.2022 23:00 22,4 C 73 % 1006,9 hPa 0,0 mm 0,0 km/h (0 Bft) N 0,00 h 0,0 mm 0,0 UV-I 0 W/m 17,3 C 0,6 km/h (0 Bft)
24.06.2022 00:00 21,8 C 76 % 1006,3 hPa 0,0 mm 0,0 km/h (0 Bft) N 0,00 h 0,0 mm 0,0 UV-I 0 W/m 17,4 C 0,2 km/h (0 Bft)
24.06.2022 01:00 21,4 C 79 % 1006,2 hPa 0,0 mm 0,3 km/h (0 Bft) O 0,00 h 0,0 mm 0,0 UV-I 0 W/m 17,6 C 3,0 km/h (1 Bft)
24.06.2022 02:00 21,3 C 81 % 1006,9 hPa 1,3 mm 2,5 km/h (1 Bft) O 0,00 h 0,0 mm 0,0 UV-I 0 W/m 17,9 C 9,6 km/h (2 Bft)
24.06.2022 03:00 20,0 C 87 % 1006,9 hPa 1,8 mm 2,9 km/h (1 Bft) O 0,00 h 0,0 mm 0,0 UV-I 0 W/m 17,8 C 10,9 km/h (2 Bft)
24.06.2022 04:00 19,0 C 88 % 1006,6 hPa 0,3 mm 2,3 km/h (1 Bft) O 0,00 h 0,0 mm 0,0 UV-I 0 W/m 17,0 C 9,3 km/h (2 Bft)
24.06.2022 05:00 18,7 C 89 % 1006,3 hPa 0,3 mm 0,1 km/h (0 Bft) N 0,00 h 0,0 mm 0,0 UV-I 7 W/m 16,9 C 0,9 km/h (0 Bft)
24.06.2022 06:00 19,0 C 90 % 1006,3 hPa 0,0 mm 0,1 km/h (0 Bft) N 0,00 h 0,0 mm 0,0 UV-I 8 W/m 17,3 C 2,0 km/h (1 Bft)
24.06.2022 07:00 18,8 C 90 % 1006,5 hPa 0,0 mm 0,2 km/h (0 Bft) N 0,00 h 0,0 mm 0,0 UV-I 35 W/m 17,2 C 3,0 km/h (1 Bft)
24.06.2022 08:00 19,2 C 89 % 1006,0 hPa 0,0 mm 0,3 km/h (0 Bft) O 0,00 h 0,0 mm 0,0 UV-I 110 W/m 17,3 C 3,3 km/h (1 Bft)
24.06.2022 09:00 18,6 C 89 % 1006,3 hPa 7,4 mm 4,1 km/h (1 Bft) O 0,00 h 0,1 mm 0,0 UV-I 59 W/m 16,7 C 13,7 km/h (3 Bft)
24.06.2022 10:00 18,3 C 90 % 1006,6 hPa 0,3 mm 1,2 km/h (1 Bft) O 0,00 h 0,0 mm 0,0 UV-I 85 W/m 16,7 C 6,7 km/h (2 Bft)
24.06.2022 11:00 18,6 C 90 % 1006,8 hPa 0,0 mm 1,1 km/h (0 Bft) O 0,58 h 0,1 mm 0,6 UV-I 551 W/m 17,0 C 7,0 km/h (2 Bft)
24.06.2022 12:00 20,9 C 83 % 1006,6 hPa 0,0 mm 1,8 km/h (1 Bft) N-NW 0,83 h 0,3 mm 1,4 UV-I 753 W/m 17,9 C 8,9 km/h (2 Bft)
24.06.2022 13:00 22,3 C 76 % 1006,6 hPa 0,0 mm 1,2 km/h (1 Bft) O 0,08 h 0,4 mm 0,3 UV-I 380 W/m 17,8 C 7,2 km/h (2 Bft)
24.06.2022 14:00 23,9 C 67 % 1006,2 hPa 0,0 mm 1,9 km/h (1 Bft) W 1,00 h 0,2 mm 1,1 UV-I 834 W/m 17,3 C 11,1 km/h (2 Bft)
24.06.2022 15:00 25,2 C 61 % 1006,2 hPa 0,0 mm 1,1 km/h (1 Bft) SW 0,75 h 0,5 mm 0,4 UV-I 637 W/m 17,1 C 7,6 km/h (2 Bft)
24.06.2022 16:00 25,8 C 58 % 1005,9 hPa 0,0 mm 0,2 km/h (0 Bft) N 0,67 h 0,4 mm 0,0 UV-I 590 W/m 16,9 C 4,6 km/h (1 Bft)
24.06.2022 17:00 22,2 C 68 % 1006,5 hPa 7,1 mm 2,1 km/h (1 Bft) O 0,00 h 0,4 mm 0,0 UV-I 64 W/m 15,9 C 10,9 km/h (2 Bft)
24.06.2022 18:00 17,6 C 89 % 1006,7 hPa 0,3 mm 0,0 km/h (0 Bft) N 0,67 h 0,1 mm 0,0 UV-I 341 W/m 15,7 C 0,9 km/h (0 Bft)
24.06.2022 19:00 19,8 C 87 % 1007,1 hPa 0,0 mm 0,4 km/h (0 Bft) O 0,58 h 0,2 mm 0,0 UV-I 226 W/m 17,6 C 5,4 km/h (1 Bft)
24.06.2022 20:00 20,2 C 84 % 1007,7 hPa 0,0 mm 0,2 km/h (0 Bft) N 0,17 h 0,1 mm 0,0 UV-I 68 W/m 17,4 C 3,5 km/h (1 Bft)
24.06.2022 21:00 20,4 C 82 % 1008,2 hPa 0,0 mm 0,6 km/h (0 Bft) O 0,50 h 0,0 mm 0,0 UV-I 26 W/m 17,2 C 5,6 km/h (1 Bft)
24.06.2022 22:00 19,9 C 82 % 1008,7 hPa 0,0 mm 0,3 km/h (0 Bft) N 0,00 h 0,0 mm 0,0 UV-I 0 W/m 16,8 C 2,8 km/h (1 Bft)
24.06.2022 23:00 19,0 C 81 % 1009,0 hPa 0,0 mm 0,9 km/h (0 Bft) O 0,00 h 0,0 mm 0,0 UV-I 0 W/m 15,7 C 6,1 km/h (2 Bft)
25.06.2022 00:00 18,3 C 81 % 1009,1 hPa 0,0 mm 1,7 km/h (1 Bft) O 0,00 h 0,0 mm 0,0 UV-I 0 W/m 15,0 C 8,3 km/h (2 Bft)
25.06.2022 01:00 17,6 C 83 % 1009,2 hPa 0,0 mm 1,6 km/h (1 Bft) O 0,00 h 0,0 mm 0,0 UV-I 0 W/m 14,6 C 7,6 km/h (2 Bft)
25.06.2022 02:00 17,1 C 85 % 1009,6 hPa 0,0 mm 0,7 km/h (0 Bft) O 0,00 h 0,0 mm 0,0 UV-I 0 W/m 14,6 C 5,0 km/h (1 Bft)
25.06.2022 03:00 16,8 C 87 % 1010,2 hPa 0,0 mm 1,2 km/h (1 Bft) O 0,00 h 0,0 mm 0,0 UV-I 0 W/m 14,5 C 6,3 km/h (2 Bft)
25.06.2022 04:00 16,6 C 87 % 1010,6 hPa 0,0 mm 1,1 km/h (1 Bft) O 0,00 h 0,0 mm 0,0 UV-I 0 W/m 14,3 C 5,4 km/h (1 Bft)
25.06.2022 05:00 16,2 C 87 % 1011,0 hPa 0,0 mm 0,1 km/h (0 Bft) N 0,00 h 0,0 mm 0,0 UV-I 11 W/m 14,1 C 2,0 km/h (1 Bft)
25.06.2022 06:00 16,1 C 88 % 1011,3 hPa 0,0 mm 0,3 km/h (0 Bft) O 0,00 h 0,0 mm 0,0 UV-I 29 W/m 14,1 C 3,3 km/h (1 Bft)
25.06.2022 07:00 17,1 C 86 % 1011,6 hPa 0,0 mm 1,7 km/h (1 Bft) O 0,00 h 0,0 mm 0,2 UV-I 49 W/m 14,8 C 8,1 km/h (2 Bft)
25.06.2022 08:00 18,9 C 79 % 1012,0 hPa 0,0 mm 3,5 km/h (1 Bft) O 0,00 h 0,0 mm 0,2 UV-I 66 W/m 15,2 C 11,3 km/h (2 Bft)
25.06.2022 09:00 20,3 C 73 % 1012,1 hPa 0,0 mm 2,2 km/h (1 Bft) O 0,25 h 0,1 mm 0,4 UV-I 242 W/m 15,3 C 10,4 km/h (2 Bft)
25.06.2022 10:00 22,0 C 62 % 1012,0 hPa 0,0 mm 2,9 km/h (1 Bft) W-NW 1,00 h 0,2 mm 0,3 UV-I 803 W/m 14,4 C 13,7 km/h (3 Bft)
25.06.2022 11:00 22,7 C 59 % 1011,9 hPa 0,0 mm 0,9 km/h (0 Bft) W-SW 0,92 h 0,4 mm 0,0 UV-I 670 W/m 14,3 C 7,4 km/h (2 Bft)
25.06.2022 12:00 24,0 C 55 % 1011,6 hPa 0,0 mm 2,0 km/h (1 Bft) SW 1,00 h 0,3 mm 4,0 UV-I 956 W/m 14,3 C 10,7 km/h (2 Bft)
25.06.2022 13:00 24,8 C 50 % 1011,5 hPa 0,0 mm 3,1 km/h (1 Bft) S-SO 0,42 h 0,5 mm 0,6 UV-I 492 W/m 13,6 C 12,8 km/h (3 Bft)
25.06.2022 14:00 24,4 C 51 % 1011,5 hPa 0,0 mm 3,5 km/h (1 Bft) SW 0,25 h 0,3 mm 0,1 UV-I 375 W/m 13,6 C 13,9 km/h (3 Bft)
25.06.2022 15:00 24,0 C 54 % 1011,5 hPa 0,0 mm 2,1 km/h (1 Bft) O 0,00 h 0,2 mm 0,0 UV-I 216 W/m 13,9 C 10,0 km/h (2 Bft)
25.06.2022 16:00 23,6 C 56 % 1011,3 hPa 0,0 mm 0,2 km/h (0 Bft) N 0,08 h 0,1 mm 0,0 UV-I 267 W/m 14,4 C 2,0 km/h (1 Bft)
25.06.2022 17:00 25,1 C 51 % 1010,7 hPa 0,0 mm 0,2 km/h (0 Bft) N 0,58 h 0,2 mm 0,0 UV-I 376 W/m 14,1 C 3,9 km/h (1 Bft)
25.06.2022 18:00 25,7 C 50 % 1010,4 hPa 0,0 mm 0,2 km/h (0 Bft) NW 0,92 h 0,2 mm 0,0 UV-I 319 W/m 14,3 C 3,0 km/h (1 Bft)
25.06.2022 19:00 25,4 C 50 % 1010,0 hPa 0,0 mm 0,1 km/h (0 Bft) N 0,00 h 0,2 mm 0,0 UV-I 135 W/m 14,3 C 1,3 km/h (1 Bft)
25.06.2022 20:00 24,4 C 56 % 1010,1 hPa 0,0 mm 0,0 km/h (0 Bft) N 0,00 h 0,1 mm 0,0 UV-I 55 W/m 15,1 C 0,0 km/h (0 Bft)
25.06.2022 21:00 22,7 C 67 % 1010,3 hPa 0,0 mm 0,0 km/h (0 Bft) N 0,08 h 0,0 mm 0,0 UV-I 15 W/m 16,4 C 0,0 km/h (0 Bft)
25.06.2022 22:00 21,3 C 74 % 1010,6 hPa 0,0 mm 0,0 km/h (0 Bft) N 0,00 h 0,0 mm 0,0 UV-I 0 W/m 16,5 C 0,0 km/h (0 Bft)
25.06.2022 23:00 20,4 C 79 % 1010,5 hPa 0,0 mm 0,1 km/h (0 Bft) N 0,00 h 0,0 mm 0,0 UV-I 0 W/m 16,7 C 0,9 km/h (0 Bft)
26.06.2022 00:00 19,4 C 81 % 1011,2 hPa 0,0 mm 5,0 km/h (1 Bft) O 0,00 h 0,0 mm 0,0 UV-I 0 W/m 16,0 C 17,0 km/h (3 Bft)
26.06.2022 01:00 18,0 C 85 % 1011,9 hPa 0,8 mm 5,5 km/h (1 Bft) O 0,00 h 0,0 mm 0,0 UV-I 0 W/m 15,5 C 15,4 km/h (3 Bft)
26.06.2022 02:00 17,2 C 88 % 1011,8 hPa 0,0 mm 0,1 km/h (0 Bft) N 0,00 h 0,0 mm 0,0 UV-I 0 W/m 15,2 C 0,9 km/h (0 Bft)
26.06.2022 03:00 16,6 C 89 % 1012,6 hPa 0,0 mm 0,0 km/h (0 Bft) N 0,00 h 0,0 mm 0,0 UV-I 0 W/m 14,7 C 1,3 km/h (1 Bft)
26.06.2022 04:00 16,6 C 90 % 1012,7 hPa 0,0 mm 0,0 km/h (0 Bft) N 0,00 h 0,0 mm 0,0 UV-I 0 W/m 14,9 C 0,0 km/h (0 Bft)
26.06.2022 05:00 16,5 C 90 % 1013,2 hPa 0,0 mm 0,1 km/h (0 Bft) N 0,00 h 0,0 mm 0,0 UV-I 9 W/m 14,9 C 1,7 km/h (1 Bft)
26.06.2022 06:00 16,2 C 89 % 1013,5 hPa 0,0 mm 0,7 km/h (0 Bft) O 0,00 h 0,0 mm 0,0 UV-I 35 W/m 14,4 C 6,1 km/h (2 Bft)
26.06.2022 07:00 16,1 C 88 % 1014,0 hPa 0,0 mm 0,7 km/h (0 Bft) O 0,00 h 0,0 mm 0,1 UV-I 76 W/m 14,1 C 6,3 km/h (2 Bft)
26.06.2022 08:00 16,3 C 86 % 1014,9 hPa 0,0 mm 0,9 km/h (0 Bft) O 0,00 h 0,0 mm 0,0 UV-I 98 W/m 13,9 C 6,3 km/h (2 Bft)
26.06.2022 09:00 17,6 C 80 % 1015,5 hPa 0,0 mm 0,7 km/h (0 Bft) O 0,17 h 0,1 mm 0,0 UV-I 228 W/m 14,2 C 6,1 km/h (2 Bft)
26.06.2022 10:00 18,8 C 76 % 1015,8 hPa 0,0 mm 1,0 km/h (0 Bft) O 0,58 h 0,1 mm 0,0 UV-I 456 W/m 14,4 C 9,1 km/h (2 Bft)
26.06.2022 11:00 19,6 C 70 % 1016,1 hPa 0,0 mm 0,8 km/h (0 Bft) NW 0,83 h 0,2 mm 0,0 UV-I 751 W/m 14,1 C 5,5 km/h (1 Bft)
26.06.2022 12:00 20,6 C 66 % 1016,2 hPa 0,0 mm 1,2 km/h (1 Bft) O 0,42 h 0,4 mm 0,5 UV-I 503 W/m 14,1 C 7,2 km/h (2 Bft)
26.06.2022 13:00 20,3 C 66 % 1016,4 hPa 0,0 mm 2,1 km/h (1 Bft) O 0,00 h 0,2 mm 0,0 UV-I 224 W/m 13,7 C 9,3 km/h (2 Bft)
26.06.2022 14:00 18,8 C 76 % 1016,4 hPa 0,5 mm 0,4 km/h (0 Bft) O 0,00 h 0,1 mm 0,0 UV-I 116 W/m 14,4 C 3,3 km/h (1 Bft)
26.06.2022 15:00 18,3 C 79 % 1016,2 hPa 0,0 mm 0,0 km/h (0 Bft) N 0,08 h 0,1 mm 0,0 UV-I 270 W/m 14,5 C 1,1 km/h (1 Bft)
26.06.2022 16:00 18,2 C 78 % 1016,2 hPa 0,0 mm 0,0 km/h (0 Bft) N 0,00 h 0,1 mm 0,0 UV-I 130 W/m 14,2 C 0,7 km/h (0 Bft)
26.06.2022 17:00 18,4 C 73 % 1015,9 hPa 0,0 mm 0,0 km/h (0 Bft) N 0,00 h 0,1 mm 0,0 UV-I 135 W/m 13,4 C 0,0 km/h (0 Bft)
26.06.2022 18:00 19,0 C 73 % 1015,3 hPa 0,0 mm 0,4 km/h (0 Bft) O 0,00 h 0,1 mm 0,0 UV-I 119 W/m 14,1 C 2,0 km/h (1 Bft)
26.06.2022 19:00 19,6 C 72 % 1014,8 hPa 0,0 mm 0,4 km/h (0 Bft) O 0,00 h 0,1 mm 0,0 UV-I 87 W/m 14,3 C 1,3 km/h (1 Bft)
26.06.2022 20:00 19,1 C 74 % 1014,9 hPa 0,0 mm 0,0 km/h (0 Bft) N 0,00 h 0,1 mm 0,0 UV-I 22 W/m 14,3 C 0,0 km/h (0 Bft)
26.06.2022 21:00 18,5 C 78 % 1015,2 hPa 0,0 mm 0,2 km/h (0 Bft) O 0,00 h 0,0 mm 0,0 UV-I 8 W/m 14,6 C 1,1 km/h (1 Bft)
26.06.2022 22:00 18,0 C 82 % 1015,2 hPa 0,0 mm 0,1 km/h (0 Bft) N 0,00 h 0,0 mm 0,0 UV-I 0 W/m 14,9 C 1,1 km/h (1 Bft)
26.06.2022 23:00 17,6 C 82 % 1014,8 hPa 0,0 mm 0,1 km/h (0 Bft) N 0,00 h 0,0 mm 0,0 UV-I 0 W/m 14,5 C 0,4 km/h (0 Bft)
Min-Datum _ 21.06.22 22.06.22 24.06.22 - 20.06.22 - - - - - 21.06.22 20.06.22
_ Min-Zeit 05:50 16:35 01:00 - 00:00 - - - - - 17:25 00:25
Minimum _ 9,6 C 33 % 1005,8 hPa - 0,0 km/h (0 Bft) - - - - - 7,3 C 0,0 km/h (0 Bft)
Max-Datum _ 23.06.22 24.06.22 21.06.22 24.06.22 26.06.22 - 20.06.22 23.06.22 25.06.22 20.06.22 24.06.22 24.06.22
_ Max-Zeit 15:50 10:15 00:30 09:25 01:00 - 10:40 14:00 12:45 13:50 02:45 17:40
Maximum _ 32,6 C 91 % 1016,8 hPa 7,4 mm 12,9 km/h
O (3 Bft)
- 0,08 h 0,6 mm 5,6 UV-I 1213 W/m 18,4 C 51,1 km/h
O (7 Bft)
Durchschnitt _ 19,7 C 68 % 1011,7 hPa #27,7 mm 0,6 km/h (0 Bft) O #48:50 h #22,353 mm 0,7 UV-I 361 W/m 13,1 C 3,8 km/h (1 Bft)



© 1998 - 2022 www.pulheimwetter.de